Time;durP1;ratioP1;P1;durP2;ratioP2;P2;SDS_P1;SDS_P2;PMS_P1;PMS_P2;Temp;Humidity;BMP_temperature;BMP_pressure;BME280_temperature;BME280_humidity;BME280_pressure;Samples;Min_cycle;Max_cycle;Signal;HPM_P1;HPM_P2
2022/08/20 00:00:13;;;;;;;13.38;11.93;;;19.20;99.90;;;;;;4997079;28;20050;-88
2022/08/20 00:02:46;;;;;;;17.15;12.70;;;19.20;99.90;;;;;;4981638;28;20042;-88
2022/08/20 00:05:12;;;;;;;18.63;12.60;;;19.20;99.90;;;;;;4965235;28;20046;-87
2022/08/20 00:07:39;;;;;;;12.85;11.52;;;19.20;99.90;;;;;;4963830;28;20057;-88
2022/08/20 00:10:05;;;;;;;14.98;12.90;;;19.20;99.90;;;;;;4947932;28;20121;-88
2022/08/20 00:12:32;;;;;;;17.60;12.27;;;19.20;99.90;;;;;;4996362;28;20442;-88
2022/08/20 00:14:58;;;;;;;15.60;12.07;;;19.10;99.90;;;;;;4980310;28;20064;-87
2022/08/20 00:17:23;;;;;;;16.98;12.13;;;19.10;99.90;;;;;;4963605;28;20501;-87
2022/08/20 00:19:49;;;;;;;16.42;13.02;;;19.10;99.90;;;;;;5013255;28;20490;-88
2022/08/20 00:22:14;;;;;;;14.27;12.05;;;19.10;99.90;;;;;;4963870;28;20050;-89
2022/08/20 00:24:40;;;;;;;14.30;11.50;;;19.10;99.90;;;;;;4995924;28;20054;-87
2022/08/20 00:27:06;;;;;;;16.13;11.65;;;19.00;99.90;;;;;;4995742;28;20053;-89
2022/08/20 00:29:31;;;;;;;14.40;11.45;;;19.00;99.90;;;;;;4994691;28;20049;-88
2022/08/20 00:31:57;;;;;;;14.48;12.05;;;19.00;99.90;;;;;;4946849;28;20058;-88
2022/08/20 00:34:23;;;;;;;13.45;12.02;;;18.90;99.90;;;;;;4946084;28;20050;-87
2022/08/20 00:36:48;;;;;;;13.50;11.52;;;18.90;99.90;;;;;;4994867;28;20042;-87
2022/08/20 00:39:14;;;;;;;16.23;11.73;;;18.80;99.90;;;;;;4995445;28;20049;-87
2022/08/20 00:41:40;;;;;;;14.70;12.25;;;18.80;99.90;;;;;;4995438;28;20056;-87
2022/08/20 00:44:14;;;;;;;17.52;12.32;;;18.70;99.90;;;;;;4995146;28;20132;-87
2022/08/20 00:46:40;;;;;;;15.07;12.05;;;18.70;99.90;;;;;;4963050;28;20057;-87
2022/08/20 00:49:07;;;;;;;15.68;12.43;;;18.60;99.90;;;;;;4978680;28;20053;-87
2022/08/20 00:51:33;;;;;;;17.25;12.32;;;18.60;99.90;;;;;;4962411;28;20038;-87
2022/08/20 00:54:07;;;;;;;17.20;12.93;;;18.60;99.90;;;;;;4995070;28;20080;-87
2022/08/20 00:56:33;;;;;;;18.05;12.60;;;18.60;99.90;;;;;;4978121;28;20056;-87
2022/08/20 00:58:58;;;;;;;15.63;12.35;;;18.50;99.90;;;;;;4962653;28;20054;-87
2022/08/20 01:01:24;;;;;;;16.13;12.52;;;18.60;99.90;;;;;;4977910;28;20100;-87
2022/08/20 01:03:54;;;;;;;18.15;13.27;;;18.50;99.90;;;;;;4978725;28;20096;-87
2022/08/20 01:06:20;;;;;;;20.15;12.68;;;18.60;99.90;;;;;;4994291;28;20066;-87
2022/08/20 01:08:45;;;;;;;16.55;12.55;;;18.60;99.90;;;;;;4962290;28;20474;-88
2022/08/20 01:11:15;;;;;;;16.75;11.85;;;18.60;99.90;;;;;;4978837;28;20054;-87
2022/08/20 01:13:41;;;;;;;16.27;12.35;;;18.60;99.90;;;;;;4979468;28;20058;-87
2022/08/20 01:16:12;;;;;;;15.15;12.68;;;18.60;99.90;;;;;;4962259;28;20053;-87
2022/08/20 01:18:38;;;;;;;20.95;13.20;;;18.60;99.90;;;;;;4962365;28;20069;-88
2022/08/20 01:21:04;;;;;;;14.50;12.15;;;18.60;99.90;;;;;;4962420;28;20482;-87
2022/08/20 01:23:51;;;;;;;19.30;12.20;;;18.50;99.90;;;;;;4978078;28;20058;-87
2022/08/20 01:26:25;;;;;;;15.85;12.00;;;18.50;99.90;;;;;;4978526;28;20184;-87
2022/08/20 01:28:55;;;;;;;;;;;18.50;99.90;;;;;;4963810;28;20042;-88
2022/08/20 01:31:25;;;;;;;15.70;11.68;;;18.40;99.90;;;;;;4977971;28;19921;-88
2022/08/20 01:33:52;;;;;;;17.05;11.52;;;18.40;99.90;;;;;;4978312;28;20050;-87
2022/08/20 01:36:22;;;;;;;16.73;12.63;;;18.40;99.90;;;;;;4978287;28;20399;-87
2022/08/20 01:38:48;;;;;;;19.67;12.93;;;18.40;99.90;;;;;;4994746;28;20041;-87
2022/08/20 01:41:52;;;;;;;17.75;12.35;;;18.30;99.90;;;;;;4963877;28;20061;-87
2022/08/20 01:44:19;;;;;;;16.40;12.00;;;18.30;99.90;;;;;;5011465;28;20085;-86
2022/08/20 01:46:46;;;;;;;20.60;12.30;;;18.20;99.90;;;;;;4961732;28;20049;-86
2022/08/20 01:49:26;;;;;;;14.52;11.45;;;18.30;99.90;;;;;;4962246;28;20054;-87
2022/08/20 01:51:52;;;;;;;20.95;12.43;;;18.20;99.90;;;;;;4962804;28;20252;-87
2022/08/20 01:54:19;;;;;;;16.42;12.60;;;18.20;99.90;;;;;;4945904;28;20107;-87
2022/08/20 01:57:05;;;;;;;23.80;12.00;;;18.20;99.90;;;;;;4993345;28;20103;-86
2022/08/20 01:59:31;;;;;;;14.82;11.57;;;18.20;99.90;;;;;;4976870;28;20053;-87
2022/08/20 02:01:57;;;;;;;16.45;11.75;;;18.10;99.90;;;;;;4993999;28;20050;-87
2022/08/20 02:04:23;;;;;;;20.00;11.77;;;18.10;99.90;;;;;;5011036;28;20520;-87
2022/08/20 02:06:53;;;;;;;20.73;12.05;;;18.10;99.90;;;;;;4957673;28;20066;-87
2022/08/20 02:09:19;;;;;;;18.55;11.73;;;18.10;99.90;;;;;;4974506;28;20053;-87
2022/08/20 02:11:46;;;;;;;20.88;11.57;;;18.00;99.90;;;;;;4990221;28;20054;-87
2022/08/20 02:14:12;;;;;;;19.30;12.05;;;18.00;99.90;;;;;;4958980;28;20086;-87
2022/08/20 02:16:39;;;;;;;18.65;11.85;;;18.00;99.90;;;;;;4957755;28;20147;-87
2022/08/20 02:19:22;;;;;;;21.15;11.40;;;17.90;99.90;;;;;;4990119;28;20546;-87
2022/08/20 02:21:54;;;;;;;17.85;11.35;;;17.80;99.90;;;;;;4990345;28;20046;-88
2022/08/20 02:24:20;;;;;;;18.05;12.40;;;17.80;99.90;;;;;;4973863;28;20491;-88
2022/08/20 02:26:45;;;;;;;19.50;11.20;;;17.80;99.90;;;;;;4974041;28;20169;-87
2022/08/20 02:29:11;;;;;;;20.73;12.57;;;17.70;99.90;;;;;;4974725;28;20068;-87
2022/08/20 02:31:37;;;;;;;18.77;11.60;;;17.70;99.90;;;;;;4974906;28;20073;-87
2022/08/20 02:34:04;;;;;;;20.67;11.90;;;17.70;99.90;;;;;;4980912;28;20478;-88
2022/08/20 02:36:30;;;;;;;17.40;11.23;;;17.60;99.90;;;;;;5013423;28;20046;-88
2022/08/20 02:38:55;;;;;;;17.02;10.70;;;17.60;99.90;;;;;;4994708;28;20058;-88
2022/08/20 02:41:21;;;;;;;19.38;11.52;;;17.50;99.90;;;;;;4996541;28;20034;-90
2022/08/20 02:43:48;;;;;;;20.08;11.05;;;17.50;99.90;;;;;;5012657;28;20053;-89
2022/08/20 02:46:14;;;;;;;17.67;10.82;;;17.50;99.90;;;;;;4999392;28;20058;-87
2022/08/20 02:48:40;;;;;;;20.73;12.25;;;17.50;99.90;;;;;;4977754;28;20437;-88
2022/08/20 02:51:06;;;;;;;22.10;11.45;;;17.40;99.90;;;;;;4992498;28;20054;-88
2022/08/20 02:53:35;;;;;;;23.80;11.32;;;17.40;99.90;;;;;;4992093;28;20050;-88
2022/08/20 02:56:01;;;;;;;16.63;11.07;;;17.40;99.90;;;;;;4960723;28;20054;-87
2022/08/20 02:58:26;;;;;;;19.30;11.07;;;17.40;99.90;;;;;;4979394;28;20213;-88
2022/08/20 03:00:52;;;;;;;22.00;10.75;;;17.40;99.90;;;;;;4962956;28;20050;-88
2022/08/20 03:03:22;;;;;;;23.13;12.85;;;17.30;99.90;;;;;;4978957;28;20054;-87
2022/08/20 03:05:50;;;;;;;19.55;10.98;;;17.30;99.90;;;;;;4979529;28;20090;-88
2022/08/20 03:08:15;;;;;;;15.25;10.80;;;17.20;99.90;;;;;;4979078;28;20050;-87
2022/08/20 03:10:42;;;;;;;17.40;11.20;;;17.20;99.90;;;;;;4994333;28;20429;-88
2022/08/20 03:13:11;;;;;;;24.10;11.73;;;17.20;99.90;;;;;;4978122;28;20498;-87
2022/08/20 03:15:38;;;;;;;22.35;11.85;;;17.20;99.90;;;;;;4994348;28;20477;-88
2022/08/20 03:18:03;;;;;;;20.42;10.73;;;17.10;99.90;;;;;;4978243;28;20054;-87
2022/08/20 03:20:30;;;;;;;18.38;11.07;;;17.10;99.90;;;;;;4994611;28;20501;-87
2022/08/20 03:22:55;;;;;;;19.05;11.85;;;17.10;99.90;;;;;;4977591;28;20050;-88
2022/08/20 03:25:21;;;;;;;21.02;12.00;;;17.10;99.90;;;;;;4978104;28;20105;-87
2022/08/20 03:27:48;;;;;;;22.48;11.68;;;17.00;99.90;;;;;;4993609;28;20097;-87
2022/08/20 03:30:14;;;;;;;17.83;10.65;;;17.10;99.90;;;;;;4977586;28;20088;-87
2022/08/20 03:32:40;;;;;;;16.20;11.45;;;17.00;99.90;;;;;;4976726;28;20096;-88
2022/08/20 03:35:07;;;;;;;18.02;11.18;;;17.00;99.90;;;;;;4977383;28;20046;-88
2022/08/20 03:37:33;;;;;;;18.67;11.25;;;17.00;99.90;;;;;;4977260;28;20104;-86
2022/08/20 03:39:59;;;;;;;18.30;11.50;;;17.00;99.90;;;;;;4976894;28;20054;-87
2022/08/20 03:42:25;;;;;;;18.92;12.07;;;17.00;99.90;;;;;;4992970;28;20053;-86
2022/08/20 03:44:52;;;;;;;18.35;11.55;;;17.00;99.90;;;;;;4960527;28;20057;-87
2022/08/20 03:47:17;;;;;;;22.90;12.18;;;17.00;99.90;;;;;;4993285;28;20188;-86
2022/08/20 03:49:43;;;;;;;19.08;12.02;;;17.00;99.90;;;;;;4992682;28;20132;-87
2022/08/20 03:52:09;;;;;;;17.33;10.98;;;17.00;99.90;;;;;;4979048;28;20093;-87
2022/08/20 03:54:34;;;;;;;14.73;10.95;;;17.00;99.90;;;;;;4977779;28;20105;-87
2022/08/20 03:57:01;;;;;;;20.45;11.23;;;17.00;99.90;;;;;;4992365;28;20442;-87
2022/08/20 03:59:27;;;;;;;15.18;10.75;;;17.00;99.90;;;;;;4992550;28;20077;-86
2022/08/20 04:01:53;;;;;;;14.82;10.68;;;17.00;99.90;;;;;;4992425;28;20085;-86
2022/08/20 04:04:19;;;;;;;17.90;10.68;;;16.90;99.90;;;;;;4976726;28;20167;-86
2022/08/20 04:06:46;;;;;;;18.38;9.57;;;16.90;99.90;;;;;;4991818;28;20055;-89
2022/08/20 04:09:13;;;;;;;18.00;9.77;;;16.90;99.90;;;;;;4991503;28;20081;-88
2022/08/20 04:11:39;;;;;;;14.80;9.82;;;16.80;99.90;;;;;;4976954;28;20549;-87
2022/08/20 04:14:05;;;;;;;21.50;9.48;;;16.80;99.90;;;;;;4976268;28;20042;-87
2022/08/20 04:16:31;;;;;;;16.15;10.57;;;16.80;99.90;;;;;;4992173;28;20096;-88
2022/08/20 04:18:57;;;;;;;14.57;9.90;;;16.80;99.90;;;;;;4976513;28;20062;-87
2022/08/20 04:21:23;;;;;;;12.60;9.43;;;16.80;99.90;;;;;;4976452;28;20057;-87
2022/08/20 04:23:49;;;;;;;15.20;9.27;;;16.70;99.90;;;;;;4976098;28;20054;-87
2022/08/20 04:26:15;;;;;;;17.50;9.82;;;16.70;99.90;;;;;;4993529;28;20405;-88
2022/08/20 04:28:40;;;;;;;17.45;9.50;;;16.70;99.90;;;;;;4976005;28;20121;-87
2022/08/20 04:31:06;;;;;;;12.63;9.32;;;16.60;99.90;;;;;;4991665;28;20469;-87
2022/08/20 04:33:32;;;;;;;15.70;9.70;;;16.60;99.90;;;;;;4976420;28;20049;-87
2022/08/20 04:35:59;;;;;;;14.23;8.77;;;16.60;99.90;;;;;;4959756;28;20046;-84
2022/08/20 04:38:25;;;;;;;16.73;9.52;;;16.60;99.90;;;;;;4960078;28;20046;-86
2022/08/20 04:40:57;;;;;;;15.05;8.80;;;16.50;99.90;;;;;;4991496;28;20420;-87
2022/08/20 04:43:28;;;;;;;15.23;8.68;;;16.50;99.90;;;;;;4975648;28;20053;-86
2022/08/20 04:45:54;;;;;;;14.65;8.38;;;16.50;99.90;;;;;;4990942;28;20050;-86
2022/08/20 04:48:21;;;;;;;16.52;9.00;;;16.50;99.90;;;;;;4975279;28;20050;-86
2022/08/20 04:50:47;;;;;;;16.05;8.75;;;16.60;99.90;;;;;;4959890;28;20056;-86
2022/08/20 04:53:18;;;;;;;16.42;9.32;;;16.60;99.90;;;;;;4991848;28;20398;-86
2022/08/20 04:55:44;;;;;;;19.48;9.40;;;16.60;99.90;;;;;;4976206;28;20097;-86
2022/08/20 04:58:21;;;;;;;14.32;8.77;;;16.70;99.90;;;;;;4975023;28;20077;-87
2022/08/20 05:00:48;;;;;;;13.02;8.45;;;16.70;99.90;;;;;;4958775;28;20058;-87
2022/08/20 05:03:15;;;;;;;14.43;8.18;;;15.90;99.90;;;;;;4975420;28;20046;-86
2022/08/20 05:05:41;;;;;;;12.60;7.68;;;16.70;99.90;;;;;;4977763;28;20469;-86
2022/08/20 05:08:07;;;;;;;12.68;8.50;;;16.80;99.90;;;;;;4977993;28;20062;-86
2022/08/20 05:10:33;;;;;;;11.70;7.28;;;16.80;99.90;;;;;;4962212;28;20049;-86
2022/08/20 05:12:59;;;;;;;13.73;8.32;;;16.80;99.90;;;;;;4962307;28;20524;-86
2022/08/20 05:15:25;;;;;;;16.85;8.02;;;16.70;99.90;;;;;;4978362;28;20077;-86
2022/08/20 05:17:59;;;;;;;11.57;7.93;;;16.70;99.90;;;;;;4978204;28;20057;-87
2022/08/20 05:20:27;;;;;;;12.93;7.90;;;16.70;99.90;;;;;;4994352;28;20509;-87
2022/08/20 05:22:55;;;;;;;13.50;8.20;;;16.70;99.90;;;;;;4961952;28;20053;-89
2022/08/20 05:25:21;;;;;;;13.45;7.80;;;16.70;99.90;;;;;;4979170;28;20405;-87
2022/08/20 05:27:46;;;;;;;15.32;7.57;;;16.70;99.90;;;;;;4962681;28;20049;-86
2022/08/20 05:30:12;;;;;;;14.75;7.78;;;16.70;99.90;;;;;;4977756;28;20375;-87
2022/08/20 05:32:38;;;;;;;13.43;7.50;;;16.70;99.90;;;;;;4994526;28;20050;-86
2022/08/20 05:35:06;;;;;;;16.65;7.60;;;16.60;99.90;;;;;;4977049;28;20056;-85
2022/08/20 05:37:36;;;;;;;13.90;7.00;;;16.60;99.90;;;;;;4977892;28;20046;-86
2022/08/20 05:40:08;;;;;;;12.10;6.90;;;16.60;99.90;;;;;;4993624;28;20088;-86
2022/08/20 05:42:33;;;;;;;15.32;7.60;;;16.60;99.90;;;;;;4978553;28;20061;-87
2022/08/20 05:44:59;;;;;;;14.38;7.47;;;16.60;99.90;;;;;;4993423;28;20177;-86
2022/08/20 05:47:27;;;;;;;15.85;6.97;;;16.60;99.90;;;;;;5011361;28;20394;-86
2022/08/20 05:49:52;;;;;;;15.15;7.05;;;16.70;99.90;;;;;;4993719;28;20054;-87
2022/08/20 05:52:18;;;;;;;11.00;7.13;;;16.80;99.90;;;;;;4977660;28;20045;-86
2022/08/20 05:54:44;;;;;;;13.10;6.70;;;17.10;99.90;;;;;;4994216;28;20081;-87
2022/08/20 05:57:09;;;;;;;11.82;6.03;;;17.30;99.90;;;;;;4994170;28;20054;-87
2022/08/20 05:59:38;;;;;;;10.77;6.05;;;17.50;99.90;;;;;;4993800;28;20056;-86
2022/08/20 06:04:23;;;;;;;11.93;5.72;;;17.90;99.90;;;;;;4964444;28;20054;-87
2022/08/20 06:04:49;;;;;;;11.73;5.40;;;18.20;99.90;;;;;;5001240;28;20516;-87
2022/08/20 06:07:15;;;;;;;9.73;4.28;;;18.70;99.90;;;;;;4996875;28;20050;-87
2022/08/20 06:09:41;;;;;;;12.77;3.97;;;19.20;99.90;;;;;;4979584;28;20045;-86
2022/08/20 06:12:08;;;;;;;8.18;4.05;;;19.40;99.90;;;;;;4979284;28;20058;-87
2022/08/20 06:14:33;;;;;;;8.63;3.97;;;19.20;99.90;;;;;;5005894;28;20151;-87
2022/08/20 06:17:10;;;;;;;8.02;3.92;;;19.20;99.90;;;;;;4990283;28;20061;-90
2022/08/20 06:19:36;;;;;;;5.93;3.75;;;19.10;99.90;;;;;;5013897;28;20046;-87
2022/08/20 06:22:02;;;;;;;8.80;3.50;;;18.90;99.90;;;;;;4977222;28;20050;-87
2022/08/20 06:24:28;;;;;;;7.85;4.00;;;18.80;99.90;;;;;;4991233;28;20084;-89
2022/08/20 06:26:55;;;;;;;13.25;4.32;;;19.10;99.90;;;;;;5012065;28;20049;-87
2022/08/20 06:29:21;;;;;;;7.25;3.58;;;19.20;99.90;;;;;;4983800;28;20493;-87
2022/08/20 06:31:46;;;;;;;9.88;3.95;;;19.80;99.90;;;;;;4965129;28;20045;-86
2022/08/20 06:34:13;;;;;;;7.85;3.20;;;19.70;99.90;;;;;;4982807;28;20113;-87
2022/08/20 06:36:38;;;;;;;6.75;3.35;;;19.80;99.90;;;;;;4982371;28;20109;-87
2022/08/20 06:39:04;;;;;;;4.75;2.97;;;19.90;99.90;;;;;;4982612;28;20451;-87
2022/08/20 06:41:29;;;;;;;7.72;3.47;;;20.70;99.90;;;;;;4965832;28;20550;-87
2022/08/20 06:43:55;;;;;;;7.72;2.97;;;21.50;99.90;;;;;;4982502;28;20605;-87
2022/08/20 06:46:22;;;;;;;8.40;2.78;;;21.30;99.90;;;;;;5015131;28;20050;-87
2022/08/20 06:48:49;;;;;;;7.10;2.72;;;21.10;99.90;;;;;;4982382;28;20054;-87
2022/08/20 06:51:14;;;;;;;7.40;2.95;;;20.90;99.90;;;;;;4981723;28;20057;-88
2022/08/20 06:53:40;;;;;;;7.72;2.65;;;21.20;99.90;;;;;;4997757;28;20068;-88
2022/08/20 06:56:06;;;;;;;8.20;2.70;;;21.40;99.90;;;;;;4997716;28;20153;-87
2022/08/20 06:58:31;;;;;;;7.57;2.63;;;21.20;99.90;;;;;;4998168;28;20398;-88
2022/08/20 07:00:58;;;;;;;5.18;2.40;;;21.10;99.90;;;;;;5015315;28;20069;-87
2022/08/20 07:03:25;;;;;;;7.22;3.17;;;20.70;99.90;;;;;;4981470;28;20042;-87
2022/08/20 07:05:50;;;;;;;6.97;2.45;;;21.60;99.90;;;;;;5014068;28;20533;-87
2022/08/20 07:08:20;;;;;;;6.07;2.45;;;22.30;99.90;;;;;;4996240;28;20093;-88
2022/08/20 07:10:46;;;;;;;7.32;2.10;;;22.90;99.90;;;;;;4997593;28;20490;-88
2022/08/20 07:13:14;;;;;;;7.65;2.13;;;23.90;99.90;;;;;;4980942;28;20046;-88
2022/08/20 07:15:40;;;;;;;6.35;2.22;;;24.50;99.90;;;;;;4980990;28;20279;-87
2022/08/20 07:18:05;;;;;;;5.88;1.95;;;23.70;99.90;;;;;;4980461;28;20058;-87
2022/08/20 07:20:33;;;;;;;5.63;2.17;;;23.30;99.90;;;;;;4979682;28;20046;-87
2022/08/20 07:22:59;;;;;;;5.60;1.88;;;23.50;99.90;;;;;;4980334;28;20058;-87
2022/08/20 07:25:25;;;;;;;6.50;1.70;;;24.30;99.90;;;;;;4979458;28;20504;-86
2022/08/20 07:27:51;;;;;;;6.10;1.85;;;23.90;99.90;;;;;;4979960;28;20046;-87
2022/08/20 07:33:07;;;;;;;7.03;2.05;;;23.60;99.90;;;;;;4969675;28;20485;-87
2022/08/20 07:35:33;;;;;;;6.72;1.55;;;24.00;99.90;;;;;;4963543;28;20089;-87
2022/08/20 07:37:59;;;;;;;5.80;1.70;;;24.40;99.90;;;;;;4995848;28;20054;-87
2022/08/20 07:40:29;;;;;;;4.35;1.70;;;24.90;99.90;;;;;;4979362;28;20045;-86
2022/08/20 07:42:59;;;;;;;5.15;1.45;;;25.30;99.90;;;;;;4963331;28;20413;-87
2022/08/20 07:45:25;;;;;;;4.85;1.67;;;25.10;99.90;;;;;;4979390;28;20190;-87
2022/08/20 07:47:52;;;;;;;5.85;1.42;;;25.40;99.90;;;;;;4996099;28;20042;-87
2022/08/20 07:50:19;;;;;;;4.97;1.48;;;25.60;99.90;;;;;;4946873;28;20094;-87
2022/08/20 07:52:45;;;;;;;2.72;1.50;;;25.10;99.90;;;;;;4963421;28;20482;-87
2022/08/20 07:55:13;;;;;;;7.80;1.33;;;25.00;99.90;;;;;;4995718;28;20402;-88
2022/08/20 07:57:39;;;;;;;6.13;1.52;;;25.20;99.90;;;;;;4964129;28;20049;-87
2022/08/20 08:00:07;;;;;;;4.82;1.50;;;25.70;99.90;;;;;;4963526;28;20061;-86
2022/08/20 08:02:33;;;;;;;4.95;1.25;;;26.10;99.90;;;;;;4979216;28;20486;-88
2022/08/20 08:05:00;;;;;;;3.08;1.00;;;26.00;99.90;;;;;;4964124;28;20112;-87
2022/08/20 08:07:26;;;;;;;5.93;1.33;;;26.50;99.90;;;;;;5013145;28;20567;-86
2022/08/20 08:09:51;;;;;;;4.30;1.38;;;26.60;99.90;;;;;;4979045;28;20082;-87
2022/08/20 08:12:17;;;;;;;2.40;1.00;;;26.80;99.90;;;;;;4947061;28;20530;-88
2022/08/20 08:14:44;;;;;;;3.05;1.08;;;26.00;99.70;;;;;;4979940;28;20147;-87
2022/08/20 08:17:11;;;;;;;3.60;1.17;;;26.20;99.90;;;;;;4979827;28;20046;-87
2022/08/20 08:19:39;;;;;;;4.57;1.15;;;25.80;99.90;;;;;;4995427;28;20133;-88
2022/08/20 08:22:05;;;;;;;4.20;1.05;;;25.70;99.90;;;;;;4978936;28;20482;-88
2022/08/20 08:24:31;;;;;;;3.70;1.17;;;25.60;99.90;;;;;;4995116;28;20046;-89
2022/08/20 08:26:57;;;;;;;2.88;1.10;;;26.00;99.90;;;;;;4995241;28;20052;-87
2022/08/20 08:29:22;;;;;;;3.70;1.10;;;26.60;99.90;;;;;;5011922;28;20541;-87
2022/08/20 08:31:48;;;;;;;3.42;1.30;;;26.40;99.90;;;;;;5012476;28;20410;-88
2022/08/20 08:34:14;;;;;;;3.80;1.30;;;27.10;99.90;;;;;;4979072;28;20085;-88
2022/08/20 08:36:42;;;;;;;3.50;1.58;;;27.20;99.20;;;;;;4994655;28;20043;-89
2022/08/20 08:39:08;;;;;;;4.05;1.15;;;26.60;98.50;;;;;;4979285;28;20062;-88
2022/08/20 08:41:48;;;;;;;4.30;1.10;;;27.10;99.40;;;;;;5011382;28;20057;-89
2022/08/20 08:44:22;;;;;;;2.80;1.00;;;27.10;98.50;;;;;;4979765;28;20446;-90
2022/08/20 08:46:52;;;;;;;3.42;1.48;;;26.90;98.10;;;;;;4964371;28;20085;-90
2022/08/20 08:49:21;;;;;;;4.15;1.65;;;27.60;99.40;;;;;;4978746;28;20129;-89
2022/08/20 08:52:03;;;;;;;7.25;1.35;;;27.70;98.70;;;;;;4962751;28;20062;-88
2022/08/20 08:54:30;;;;;;;4.33;1.20;;;27.80;96.50;;;;;;4978003;28;20429;-86
2022/08/20 08:56:55;;;;;;;2.65;1.13;;;27.50;97.20;;;;;;4994613;28;20085;-85
2022/08/20 08:59:21;;;;;;;2.80;0.90;;;28.20;97.60;;;;;;4993430;28;20524;-85
2022/08/20 09:01:53;;;;;;;3.85;0.93;;;28.30;97.50;;;;;;4978467;28;20556;-86
2022/08/20 09:04:20;;;;;;;4.95;1.30;;;29.40;95.30;;;;;;4980372;28;20042;-88
2022/08/20 09:06:46;;;;;;;4.45;1.17;;;29.60;95.30;;;;;;4977882;28;20077;-87
2022/08/20 09:09:36;;;;;;;3.47;1.23;;;29.50;95.70;;;;;;4962141;28;20489;-89
2022/08/20 09:12:10;;;;;;;4.68;1.20;;;28.50;96.40;;;;;;4952788;28;20053;-89
2022/08/20 09:14:36;;;;;;;5.50;1.30;;;28.30;96.40;;;;;;4964875;28;20070;-91
2022/08/20 09:17:02;;;;;;;5.60;1.30;;;27.70;97.70;;;;;;4979838;28;20074;-90
2022/08/20 09:19:30;;;;;;;3.70;1.13;;;28.00;96.80;;;;;;4978505;28;20108;-89
2022/08/20 09:21:56;;;;;;;8.23;1.30;;;27.70;95.90;;;;;;4961855;28;20099;-90
2022/08/20 09:24:22;;;;;;;4.18;1.15;;;27.70;95.40;;;;;;4961613;28;20053;-88
2022/08/20 09:26:47;;;;;;;5.18;1.10;;;28.00;95.70;;;;;;4993882;28;20056;-88
2022/08/20 09:29:13;;;;;;;4.18;1.02;;;27.50;96.00;;;;;;4994185;28;20071;-87
2022/08/20 09:31:41;;;;;;;3.83;1.10;;;28.40;96.50;;;;;;4961610;28;20100;-88
2022/08/20 09:34:09;;;;;;;4.30;1.40;;;28.40;96.40;;;;;;4961892;28;20129;-88
2022/08/20 09:36:35;;;;;;;3.90;1.20;;;28.00;96.20;;;;;;4977545;28;20148;-88
2022/08/20 09:39:01;;;;;;;4.00;1.25;;;28.10;96.80;;;;;;4977666;28;20136;-89
2022/08/20 09:41:27;;;;;;;2.03;1.10;;;27.30;95.70;;;;;;4961417;28;20134;-90
2022/08/20 09:43:53;;;;;;;5.15;1.20;;;28.60;94.60;;;;;;4978025;28;20482;-92
2022/08/20 09:46:19;;;;;;;3.88;0.90;;;29.50;94.50;;;;;;4993571;28;20063;-91
2022/08/20 09:48:44;;;;;;;3.10;1.20;;;29.30;94.40;;;;;;4962521;28;20046;-91
2022/08/20 09:51:10;;;;;;;2.92;1.00;;;29.10;94.00;;;;;;4995593;28;20494;-90
2022/08/20 09:53:39;;;;;;;2.83;1.20;;;28.90;94.80;;;;;;4962866;28;20049;-92
2022/08/20 09:56:05;;;;;;;3.08;1.13;;;28.30;94.40;;;;;;4964696;28;20456;-92
2022/08/20 09:58:37;;;;;;;4.22;0.80;;;28.70;95.30;;;;;;4980024;28;20203;-90
2022/08/20 10:01:06;;;;;;;4.43;1.10;;;29.00;94.40;;;;;;4983726;28;20046;-89
2022/08/20 10:03:32;;;;;;;3.25;1.00;;;27.90;94.50;;;;;;4981051;28;20057;-89
2022/08/20 10:05:58;;;;;;;4.00;1.40;;;28.00;94.90;;;;;;5018821;28;20062;-86
2022/08/20 10:08:24;;;;;;;4.13;1.05;;;27.90;93.80;;;;;;5016952;28;20033;-88
2022/08/20 10:10:50;;;;;;;3.88;1.30;;;28.60;94.30;;;;;;4996544;28;20089;-90
2022/08/20 10:13:16;;;;;;;3.88;1.00;;;28.20;94.50;;;;;;5001714;28;20506;-89
2022/08/20 10:15:41;;;;;;;3.05;0.82;;;28.00;94.20;;;;;;5014872;28;20113;-89
2022/08/20 10:18:08;;;;;;;2.45;1.15;;;28.00;95.00;;;;;;4955989;28;20054;-90
2022/08/20 10:20:34;;;;;;;3.03;1.30;;;28.40;93.30;;;;;;4983726;28;20096;-88
2022/08/20 10:23:00;;;;;;;3.38;1.10;;;29.00;94.40;;;;;;4999785;28;20112;-89
2022/08/20 10:25:27;;;;;;;4.55;1.50;;;29.60;93.20;;;;;;4967242;28;20081;-89
2022/08/20 10:27:53;;;;;;;3.85;1.25;;;28.30;93.70;;;;;;4999842;28;20390;-88
2022/08/20 10:30:19;;;;;;;2.97;1.02;;;27.70;93.90;;;;;;4966752;28;20042;-89
2022/08/20 10:32:45;;;;;;;3.08;1.17;;;27.90;93.90;;;;;;4997416;28;20033;-88
2022/08/20 10:35:10;;;;;;;3.03;1.05;;;28.00;94.50;;;;;;4981888;28;20050;-89
2022/08/20 10:37:36;;;;;;;4.45;1.02;;;28.10;94.00;;;;;;4998728;28;20105;-89
2022/08/20 10:40:02;;;;;;;6.43;1.35;;;28.40;94.10;;;;;;4998697;28;20561;-91
2022/08/20 10:42:28;;;;;;;3.33;1.10;;;27.70;94.70;;;;;;4965878;28;20053;-90
2022/08/20 10:44:54;;;;;;;5.75;1.20;;;27.30;94.90;;;;;;4965615;28;20697;-89
2022/08/20 10:47:25;;;;;;;5.60;1.20;;;26.40;94.90;;;;;;4997430;28;20085;-89
2022/08/20 10:49:52;;;;;;;3.40;1.30;;;26.80;95.10;;;;;;4965756;28;20049;-89
2022/08/20 10:52:18;;;;;;;4.65;1.40;;;26.60;94.40;;;;;;4982147;28;20080;-90
2022/08/20 10:54:45;;;;;;;6.47;1.42;;;26.20;94.90;;;;;;4965328;28;20096;-88
2022/08/20 10:57:27;;;;;;;5.22;1.20;;;25.70;95.50;;;;;;4998177;28;20049;-88
2022/08/20 10:59:54;;;;;;;2.53;1.15;;;26.10;95.30;;;;;;4965036;28;20125;-89
2022/08/20 11:02:20;;;;;;;2.40;1.05;;;26.50;95.20;;;;;;4997462;28;20061;-91
2022/08/20 11:04:46;;;;;;;3.45;1.40;;;27.00;94.00;;;;;;4979965;28;20129;-89
2022/08/20 11:07:14;;;;;;;5.07;1.30;;;27.00;94.10;;;;;;4948010;28;20141;-90
2022/08/20 11:09:40;;;;;;;4.03;1.38;;;27.60;94.60;;;;;;4980143;28;20050;-90
2022/08/20 11:12:06;;;;;;;3.25;1.17;;;27.30;92.80;;;;;;4981649;28;20046;-90
2022/08/20 11:14:32;;;;;;;4.43;1.40;;;27.10;93.00;;;;;;4965236;28;20057;-86
2022/08/20 11:16:59;;;;;;;3.33;1.58;;;26.50;93.90;;;;;;4996464;28;20756;-89
2022/08/20 11:19:24;;;;;;;4.45;1.40;;;26.80;94.00;;;;;;4981402;28;20060;-89
2022/08/20 11:21:50;;;;;;;3.67;1.30;;;26.70;94.20;;;;;;4980467;28;20045;-88
2022/08/20 11:24:16;;;;;;;4.20;1.17;;;26.80;94.60;;;;;;4980753;28;20053;-88
2022/08/20 11:26:41;;;;;;;6.35;1.58;;;27.10;94.00;;;;;;4980947;28;20050;-88
2022/08/20 11:29:07;;;;;;;2.95;1.30;;;26.80;94.70;;;;;;4981154;28;20038;-88
2022/08/20 11:31:32;;;;;;;5.43;1.38;;;26.40;94.30;;;;;;4996566;28;20050;-88
2022/08/20 11:33:58;;;;;;;4.30;1.20;;;26.40;94.40;;;;;;4979899;28;20057;-88
2022/08/20 11:36:25;;;;;;;4.43;1.30;;;25.60;94.20;;;;;;5013298;28;20057;-88
2022/08/20 11:38:51;;;;;;;4.15;1.65;;;25.00;95.20;;;;;;4995402;28;20065;-85
2022/08/20 11:41:17;;;;;;;4.35;1.40;;;24.80;95.50;;;;;;4979392;28;20057;-83
2022/08/20 11:43:43;;;;;;;4.38;1.60;;;24.80;95.30;;;;;;4995244;28;20042;-83
2022/08/20 11:46:08;;;;;;;5.88;1.50;;;24.90;96.00;;;;;;4995736;28;20060;-83
2022/08/20 11:48:34;;;;;;;5.18;1.50;;;24.80;96.40;;;;;;4995482;28;20046;-82
2022/08/20 11:50:59;;;;;;;4.45;1.40;;;24.90;96.00;;;;;;4994215;28;20375;-82
2022/08/20 11:53:25;;;;;;;4.07;1.40;;;25.20;95.60;;;;;;4995265;28;20053;-82
2022/08/20 11:55:51;;;;;;;3.38;1.30;;;25.50;95.00;;;;;;5013093;28;20045;-83
2022/08/20 11:58:16;;;;;;;6.43;1.30;;;25.60;95.60;;;;;;4995741;28;20077;-83
2022/08/20 12:00:42;;;;;;;4.57;1.73;;;25.50;95.20;;;;;;4995023;28;20168;-82
2022/08/20 12:03:08;;;;;;;2.55;1.45;;;25.20;95.10;;;;;;5012637;28;20046;-82
2022/08/20 12:05:34;;;;;;;5.40;1.30;;;25.50;95.60;;;;;;5012927;28;20050;-83
2022/08/20 12:08:00;;;;;;;4.18;1.83;;;25.70;96.30;;;;;;4978599;28;20054;-83
2022/08/20 12:10:26;;;;;;;3.90;1.67;;;25.50;95.80;;;;;;4978352;28;20401;-81
2022/08/20 12:12:53;;;;;;;6.57;1.50;;;25.70;94.90;;;;;;4958659;28;20053;-82
2022/08/20 12:15:19;;;;;;;4.95;1.60;;;25.70;95.20;;;;;;4976103;28;20097;-83
2022/08/20 12:17:45;;;;;;;3.40;1.33;;;25.30;95.50;;;;;;4991724;28;20050;-85
2022/08/20 12:20:11;;;;;;;4.10;1.35;;;25.00;95.30;;;;;;4991835;28;20065;-82
2022/08/20 12:22:37;;;;;;;6.68;1.58;;;25.00;95.20;;;;;;4976033;28;20064;-82
2022/08/20 12:25:04;;;;;;;3.25;1.50;;;25.00;95.50;;;;;;4985693;28;20041;-83
2022/08/20 12:27:30;;;;;;;7.35;1.60;;;24.90;95.70;;;;;;4977538;28;20041;-82
2022/08/20 12:29:58;;;;;;;4.43;1.50;;;24.70;95.80;;;;;;4992423;28;20042;-81
2022/08/20 12:32:25;;;;;;;4.25;1.55;;;25.00;96.60;;;;;;4975668;28;20129;-82
2022/08/20 12:34:51;;;;;;;4.68;1.52;;;25.00;95.40;;;;;;4992920;28;20048;-82
2022/08/20 12:37:21;;;;;;;4.75;1.65;;;25.10;95.30;;;;;;4977902;28;20049;-82
2022/08/20 12:39:49;;;;;;;2.80;1.33;;;25.20;95.80;;;;;;4981816;28;20050;-82